createdAt,value
2019-03-16T00:01:57.584Z,61.60
2019-03-16T00:04:26.867Z,61.60
2019-03-16T00:06:55.632Z,61.20
2019-03-16T00:09:24.955Z,61.40
2019-03-16T00:11:53.834Z,61.60
2019-03-16T00:14:22.776Z,62.00
2019-03-16T00:16:51.618Z,61.80
2019-03-16T00:19:20.650Z,61.20
2019-03-16T00:21:49.424Z,61.50
2019-03-16T00:24:18.800Z,61.50
2019-03-16T00:26:47.599Z,61.60
2019-03-16T00:29:16.453Z,61.40
2019-03-16T00:31:45.898Z,60.80
2019-03-16T00:34:14.721Z,61.20
2019-03-16T00:36:43.763Z,61.10
2019-03-16T00:39:12.825Z,60.90
2019-03-16T00:41:41.952Z,61.60
2019-03-16T00:44:11.032Z,62.40
2019-03-16T00:46:39.813Z,62.30
2019-03-16T00:49:08.941Z,61.80
2019-03-16T00:51:37.769Z,61.70
2019-03-16T00:54:06.634Z,61.80
2019-03-16T00:56:35.429Z,61.50
2019-03-16T00:59:04.327Z,61.30
2019-03-16T01:01:33.122Z,61.30
2019-03-16T01:04:01.942Z,61.60
2019-03-16T01:06:31.008Z,61.60
2019-03-16T01:09:00.339Z,61.90
2019-03-16T01:11:29.483Z,62.30
2019-03-16T01:13:58.594Z,62.60
2019-03-16T01:16:27.377Z,62.40
2019-03-16T01:18:56.438Z,63.10
2019-03-16T01:21:25.215Z,62.90
2019-03-16T01:23:54.243Z,63.30
2019-03-16T01:26:23.006Z,63.50
2019-03-16T01:28:52.266Z,63.80
2019-03-16T01:31:21.095Z,64.20
2019-03-16T01:33:50.894Z,64.00
2019-03-16T01:36:20.001Z,64.20
2019-03-16T01:38:49.181Z,64.30
2019-03-16T01:41:18.312Z,64.30
2019-03-16T01:43:47.481Z,64.60
2019-03-16T01:46:16.596Z,64.80
2019-03-16T01:48:45.381Z,64.70
2019-03-16T01:51:15.702Z,65.00
2019-03-16T01:53:44.783Z,65.10
2019-03-16T01:56:13.625Z,64.80
2019-03-16T01:58:42.715Z,64.70
2019-03-16T02:01:11.601Z,64.50
2019-03-16T02:03:40.403Z,65.10
2019-03-16T02:06:09.230Z,65.90
2019-03-16T02:08:38.342Z,65.80
2019-03-16T02:11:07.248Z,65.50
2019-03-16T02:13:36.355Z,65.00
2019-03-16T02:16:10.788Z,64.80
2019-03-16T02:18:35.950Z,64.50
2019-03-16T02:21:05.386Z,64.50
2019-03-16T02:23:34.263Z,65.00
2019-03-16T02:26:03.278Z,65.00
2019-03-16T02:28:32.055Z,65.00
2019-03-16T02:31:00.814Z,65.20
2019-03-16T02:33:29.579Z,65.20
2019-03-16T02:35:58.409Z,64.80
2019-03-16T02:38:27.189Z,64.80
2019-03-16T02:40:55.941Z,64.50
2019-03-16T02:43:25.069Z,64.00
2019-03-16T02:45:53.941Z,64.30
2019-03-16T02:48:23.487Z,64.20
2019-03-16T02:50:52.331Z,64.40
2019-03-16T02:53:21.529Z,63.60
2019-03-16T02:55:50.445Z,63.30
2019-03-16T02:58:19.572Z,63.40
2019-03-16T03:00:48.352Z,63.20
2019-03-16T03:03:29.457Z,63.40
2019-03-16T03:05:47.706Z,63.70
2019-03-16T03:08:16.832Z,63.50
2019-03-16T03:10:45.616Z,63.80
2019-03-16T03:13:14.846Z,65.00
2019-03-16T03:15:44.004Z,64.70
2019-03-16T03:18:12.855Z,64.30
2019-03-16T03:20:41.959Z,64.10
2019-03-16T03:23:11.390Z,64.00
2019-03-16T03:25:40.189Z,63.90
2019-03-16T03:28:09.024Z,63.30
2019-03-16T03:30:37.785Z,63.40
2019-03-16T03:33:06.809Z,63.30
2019-03-16T03:35:35.654Z,63.10
2019-03-16T03:38:04.433Z,62.60
2019-03-16T03:40:33.268Z,62.60
2019-03-16T03:43:02.122Z,62.60
2019-03-16T03:45:31.550Z,62.40
2019-03-16T03:48:00.395Z,62.90
2019-03-16T03:50:29.414Z,62.70
2019-03-16T03:52:58.618Z,62.20
2019-03-16T03:55:28.107Z,61.80
2019-03-16T03:57:56.972Z,61.80
2019-03-16T04:00:26.274Z,61.90
2019-03-16T04:02:55.372Z,61.60
2019-03-16T04:05:24.286Z,61.60
2019-03-16T04:07:53.478Z,61.40
2019-03-16T04:10:22.316Z,61.40
2019-03-16T04:12:51.650Z,60.90
2019-03-16T04:15:20.495Z,60.30
2019-03-16T04:17:49.343Z,59.70
2019-03-16T04:20:18.128Z,59.70
2019-03-16T04:22:46.897Z,59.70
2019-03-16T04:25:15.758Z,59.70
2019-03-16T04:27:44.519Z,59.70
2019-03-16T04:30:13.893Z,59.70
2019-03-16T04:32:42.746Z,59.80
2019-03-16T04:35:12.191Z,60.20
2019-03-16T04:37:41.003Z,60.00
2019-03-16T04:40:09.962Z,60.40
2019-03-16T04:42:38.709Z,60.30
2019-03-16T04:45:07.613Z,59.90
2019-03-16T04:47:36.387Z,60.00
2019-03-16T04:50:05.487Z,61.10
2019-03-16T04:52:34.614Z,60.80
2019-03-16T04:55:03.589Z,60.20
2019-03-16T04:57:32.627Z,60.80
2019-03-16T05:00:01.429Z,61.00
2019-03-16T05:02:30.268Z,61.20
2019-03-16T05:04:59.323Z,61.20
2019-03-16T05:07:28.419Z,61.90
2019-03-16T05:09:57.542Z,62.30
2019-03-16T05:12:26.387Z,61.90
2019-03-16T05:14:55.437Z,62.30
2019-03-16T05:17:24.217Z,62.10
2019-03-16T05:19:52.989Z,62.00
2019-03-16T05:22:21.740Z,62.00
2019-03-16T05:24:50.800Z,61.90
2019-03-16T05:27:19.579Z,62.10
2019-03-16T05:29:48.394Z,61.80
2019-03-16T05:32:17.148Z,61.90
2019-03-16T05:34:55.904Z,61.70
2019-03-16T05:37:16.403Z,62.40
2019-03-16T05:39:45.503Z,62.60
2019-03-16T05:42:14.344Z,62.40
2019-03-16T05:44:43.465Z,62.20
2019-03-16T05:47:12.585Z,62.50
2019-03-16T05:49:41.643Z,62.90
2019-03-16T05:52:10.430Z,63.00
2019-03-16T05:54:39.580Z,63.30
2019-03-16T05:57:08.388Z,63.30
2019-03-16T05:59:37.245Z,63.00
2019-03-16T06:02:06.009Z,62.70
2019-03-16T06:04:34.805Z,62.80
2019-03-16T06:07:03.635Z,62.80
2019-03-16T06:09:32.737Z,62.90
2019-03-16T06:12:01.797Z,62.30
2019-03-16T06:14:30.808Z,62.90
2019-03-16T06:16:59.593Z,63.00
2019-03-16T06:19:28.758Z,62.90
2019-03-16T06:21:57.873Z,62.40
2019-03-16T06:24:28.150Z,62.70
2019-03-16T06:26:57.318Z,62.70
2019-03-16T06:29:26.476Z,62.50
2019-03-16T06:31:55.521Z,62.70
2019-03-16T06:34:24.294Z,62.30
2019-03-16T06:36:53.688Z,62.80
2019-03-16T06:39:22.546Z,61.20
2019-03-16T06:41:52.035Z,60.00
2019-03-16T06:44:21.142Z,61.00
2019-03-16T06:46:49.930Z,61.20
2019-03-16T06:49:18.748Z,61.80
2019-03-16T06:51:47.551Z,62.60
2019-03-16T06:54:16.348Z,63.10
2019-03-16T06:56:45.573Z,64.20
2019-03-16T06:59:14.475Z,64.90
2019-03-16T07:01:43.886Z,65.10
2019-03-16T07:04:12.652Z,65.70
2019-03-16T07:06:41.437Z,66.30
2019-03-16T07:09:10.213Z,67.90
2019-03-16T07:11:38.990Z,68.70
2019-03-16T07:14:08.032Z,68.90
2019-03-16T07:16:37.154Z,70.40
2019-03-16T07:19:05.921Z,70.80
2019-03-16T07:21:34.698Z,71.10
2019-03-16T07:24:03.782Z,71.80
2019-03-16T07:26:32.871Z,71.50
2019-03-16T07:29:02.028Z,72.00
2019-03-16T07:31:30.804Z,72.50
2019-03-16T07:33:59.919Z,72.80
2019-03-16T07:36:28.685Z,73.30
2019-03-16T07:38:57.475Z,73.80
2019-03-16T07:41:26.550Z,73.50
2019-03-16T07:43:55.630Z,73.30
2019-03-16T07:46:25.041Z,73.20
2019-03-16T07:48:54.207Z,73.70
2019-03-16T07:51:23.009Z,74.30
2019-03-16T07:53:51.867Z,75.10
2019-03-16T07:56:20.656Z,73.60
2019-03-16T07:58:49.403Z,74.70
2019-03-16T08:01:18.875Z,74.30
2019-03-16T08:03:47.645Z,74.80
2019-03-16T08:06:16.762Z,75.40
2019-03-16T08:08:46.344Z,75.20
2019-03-16T08:11:15.482Z,75.00
2019-03-16T08:13:44.613Z,75.80
2019-03-16T08:16:13.739Z,75.70
2019-03-16T08:18:42.593Z,75.70
2019-03-16T08:21:11.450Z,76.10
2019-03-16T08:23:41.008Z,75.90
2019-03-16T08:26:10.150Z,76.00
2019-03-16T08:28:39.235Z,75.70
2019-03-16T08:31:08.036Z,75.60
2019-03-16T08:33:37.060Z,76.60
2019-03-16T08:36:06.127Z,76.00
2019-03-16T08:38:34.963Z,75.70
2019-03-16T08:41:03.763Z,76.20
2019-03-16T08:43:32.559Z,76.30
2019-03-16T08:46:01.623Z,76.90
2019-03-16T08:48:30.720Z,76.40
2019-03-16T08:50:59.939Z,76.00
2019-03-16T08:53:29.005Z,76.50
2019-03-16T08:55:57.796Z,76.90
2019-03-16T08:58:26.571Z,76.50
2019-03-16T09:00:55.674Z,76.60
2019-03-16T09:03:24.442Z,77.00
2019-03-16T09:05:53.817Z,77.20
2019-03-16T09:08:23.215Z,76.40
2019-03-16T09:10:52.521Z,75.90
2019-03-16T09:13:21.599Z,75.90
2019-03-16T09:15:50.355Z,75.80
2019-03-16T09:18:19.419Z,76.40
2019-03-16T09:20:48.588Z,75.60
2019-03-16T09:23:17.370Z,75.80
2019-03-16T09:25:46.224Z,75.10
2019-03-16T09:28:18.883Z,75.40
2019-03-16T09:30:46.101Z,75.00
2019-03-16T09:33:15.054Z,75.30
2019-03-16T09:35:43.916Z,75.30
2019-03-16T09:38:12.761Z,75.10
2019-03-16T09:40:41.877Z,75.40
2019-03-16T09:43:11.284Z,75.50
2019-03-16T09:45:40.467Z,74.70
2019-03-16T09:48:09.554Z,75.10
2019-03-16T09:50:38.342Z,74.80
2019-03-16T09:53:07.759Z,75.40
2019-03-16T09:55:36.549Z,74.70
2019-03-16T09:58:05.388Z,74.00
2019-03-16T10:00:34.143Z,75.00
2019-03-16T10:03:02.942Z,75.00
2019-03-16T10:05:32.074Z,74.30
2019-03-16T10:08:01.271Z,74.50
2019-03-16T10:10:30.697Z,74.50
2019-03-16T10:12:59.783Z,75.30
2019-03-16T10:15:28.823Z,73.90
2019-03-16T10:17:57.597Z,73.40
2019-03-16T10:20:26.372Z,74.00
2019-03-16T10:22:55.424Z,74.40
2019-03-16T10:25:24.516Z,74.40
2019-03-16T10:27:53.580Z,74.30
2019-03-16T10:30:22.954Z,74.60
2019-03-16T10:32:52.048Z,75.40
2019-03-16T10:35:20.997Z,75.50
2019-03-16T10:37:50.070Z,75.30
2019-03-16T10:40:19.420Z,76.20
2019-03-16T10:42:48.329Z,76.60
2019-03-16T10:45:17.425Z,76.80
2019-03-16T10:47:46.565Z,77.50
2019-03-16T10:50:15.763Z,77.90
2019-03-16T10:52:44.663Z,77.90
2019-03-16T10:55:13.587Z,78.30
2019-03-16T10:57:42.987Z,78.60
2019-03-16T11:00:12.401Z,78.50
2019-03-16T11:02:41.488Z,79.10
2019-03-16T11:05:10.684Z,79.00
2019-03-16T11:07:39.546Z,79.00
2019-03-16T11:10:08.606Z,79.50
2019-03-16T11:12:37.998Z,79.10
2019-03-16T11:15:07.504Z,79.80
2019-03-16T11:17:36.878Z,80.30
2019-03-16T11:20:06.227Z,80.60
2019-03-16T11:22:35.590Z,81.20
2019-03-16T11:25:05.046Z,81.10
2019-03-16T11:27:33.807Z,80.80
2019-03-16T11:30:03.453Z,80.90
2019-03-16T11:32:32.234Z,80.80
2019-03-16T11:35:01.569Z,80.60
2019-03-16T11:37:30.492Z,80.60
2019-03-16T11:39:59.866Z,81.50
2019-03-16T11:42:28.883Z,81.60
2019-03-16T11:44:57.953Z,81.30
2019-03-16T11:47:27.599Z,81.60
2019-03-16T11:49:56.942Z,81.60
2019-03-16T11:52:26.062Z,81.70
2019-03-16T11:54:55.660Z,81.60
2019-03-16T11:57:24.403Z,81.50
2019-03-16T11:59:53.180Z,81.70
2019-03-16T12:02:22.244Z,81.70
2019-03-16T12:04:51.618Z,81.90
2019-03-16T12:07:21.044Z,81.80
2019-03-16T12:09:50.532Z,81.90
2019-03-16T12:12:20.056Z,82.10
2019-03-16T12:14:49.467Z,82.30
2019-03-16T12:17:18.836Z,81.80
2019-03-16T12:19:47.946Z,81.90
2019-03-16T12:22:17.355Z,82.40
2019-03-16T12:24:46.764Z,81.90
2019-03-16T12:27:16.128Z,82.30
2019-03-16T12:29:45.254Z,82.60
2019-03-16T12:32:14.527Z,82.50
2019-03-16T12:34:44.063Z,82.10
2019-03-16T12:37:13.575Z,82.50
2019-03-16T12:39:42.448Z,82.90
2019-03-16T12:42:11.221Z,82.50
2019-03-16T12:44:39.999Z,82.00
2019-03-16T12:47:09.306Z,82.60
2019-03-16T12:49:38.929Z,81.80
2019-03-16T12:52:07.723Z,82.70
2019-03-16T12:54:36.626Z,82.90
2019-03-16T12:57:05.723Z,82.50
2019-03-16T12:59:46.361Z,82.10
2019-03-16T13:02:05.235Z,82.00
2019-03-16T13:04:34.283Z,82.30
2019-03-16T13:07:03.722Z,82.30
2019-03-16T13:09:32.504Z,82.00
2019-03-16T13:12:01.361Z,82.00
2019-03-16T13:14:30.503Z,82.30
2019-03-16T13:16:59.352Z,81.80
2019-03-16T13:19:28.690Z,81.60
2019-03-16T13:21:57.590Z,81.80
2019-03-16T13:24:26.610Z,81.00
2019-03-16T13:26:55.699Z,82.30
2019-03-16T13:29:24.831Z,82.50
2019-03-16T13:31:54.035Z,82.70
2019-03-16T13:34:23.494Z,82.60
2019-03-16T13:36:52.972Z,82.80
2019-03-16T13:39:22.818Z,82.40
2019-03-16T13:41:52.139Z,82.40
2019-03-16T13:44:21.232Z,83.20
2019-03-16T13:46:50.012Z,82.00
2019-03-16T13:49:18.795Z,82.20
2019-03-16T13:51:47.848Z,81.50
2019-03-16T13:54:17.635Z,81.90
2019-03-16T13:56:46.746Z,81.60
2019-03-16T13:59:15.511Z,81.20
2019-03-16T14:01:44.691Z,81.10
2019-03-16T14:04:13.555Z,80.60
2019-03-16T14:06:42.341Z,80.40
2019-03-16T14:09:11.495Z,80.60
2019-03-16T14:11:41.570Z,79.70
2019-03-16T14:14:11.028Z,78.90
2019-03-16T14:16:40.098Z,78.70
2019-03-16T14:19:09.738Z,77.90
2019-03-16T14:21:39.236Z,77.80
2019-03-16T14:24:08.095Z,76.90
2019-03-16T14:26:36.969Z,77.10
2019-03-16T14:29:06.011Z,76.80
2019-03-16T14:31:35.180Z,76.90
2019-03-16T14:34:03.961Z,76.30
2019-03-16T14:36:33.409Z,76.30
2019-03-16T14:39:04.556Z,75.90
2019-03-16T14:41:33.737Z,75.40
2019-03-16T14:44:02.776Z,75.70
2019-03-16T14:46:32.124Z,76.40
2019-03-16T14:49:01.653Z,76.50
2019-03-16T14:51:30.749Z,76.10
2019-03-16T14:53:59.527Z,74.90
2019-03-16T14:56:28.611Z,75.10
2019-03-16T14:58:57.690Z,75.60
2019-03-16T15:01:26.490Z,75.10
2019-03-16T15:03:55.925Z,74.80
2019-03-16T15:06:25.261Z,75.00
2019-03-16T15:08:54.347Z,75.20
2019-03-16T15:11:23.455Z,74.80
2019-03-16T15:13:52.788Z,74.70
2019-03-16T15:16:21.864Z,73.90
2019-03-16T15:18:51.176Z,73.30
2019-03-16T15:21:19.944Z,74.10
2019-03-16T15:23:48.725Z,73.60
2019-03-16T15:26:17.590Z,73.00
2019-03-16T15:28:47.056Z,73.70
2019-03-16T15:31:16.146Z,73.20
2019-03-16T15:33:45.254Z,73.70
2019-03-16T15:36:14.326Z,73.50
2019-03-16T15:38:43.436Z,73.40
2019-03-16T15:41:12.484Z,73.80
2019-03-16T15:43:41.827Z,73.10
2019-03-16T15:46:10.636Z,72.70
2019-03-16T15:48:40.032Z,72.30
2019-03-16T15:51:09.422Z,71.80
2019-03-16T15:53:38.213Z,72.30
2019-03-16T15:56:07.151Z,72.10
2019-03-16T15:58:36.307Z,72.30
2019-03-16T16:01:05.238Z,71.80
2019-03-16T16:03:34.304Z,72.40
2019-03-16T16:06:03.225Z,71.80
2019-03-16T16:08:32.325Z,71.90
2019-03-16T16:11:01.571Z,72.10
2019-03-16T16:13:30.759Z,72.00
2019-03-16T16:15:59.883Z,71.70
2019-03-16T16:18:28.962Z,72.20
2019-03-16T16:20:58.366Z,72.20
2019-03-16T16:23:27.205Z,72.10
2019-03-16T16:25:56.289Z,72.00
2019-03-16T16:28:25.659Z,71.70
2019-03-16T16:30:54.782Z,71.80
2019-03-16T16:33:23.815Z,72.00
2019-03-16T16:35:52.873Z,72.10
2019-03-16T16:38:22.524Z,72.20
2019-03-16T16:40:51.565Z,72.20
2019-03-16T16:43:20.668Z,71.90
2019-03-16T16:45:50.144Z,71.70
2019-03-16T16:48:18.966Z,72.60
2019-03-16T16:50:48.179Z,72.50
2019-03-16T16:53:17.370Z,72.00
2019-03-16T16:55:46.567Z,71.80
2019-03-16T16:58:15.338Z,72.30
2019-03-16T17:00:44.541Z,72.50
2019-03-16T17:03:13.717Z,72.20
2019-03-16T17:05:43.500Z,71.70
2019-03-16T17:08:13.007Z,72.40
2019-03-16T17:10:42.044Z,73.30
2019-03-16T17:13:11.158Z,74.10
2019-03-16T17:15:39.936Z,75.40
2019-03-16T17:18:09.067Z,74.70
2019-03-16T17:20:38.175Z,74.70
2019-03-16T17:23:07.014Z,74.80
2019-03-16T17:25:36.063Z,74.40
2019-03-16T17:28:04.895Z,74.90
2019-03-16T17:30:33.836Z,74.90
2019-03-16T17:33:02.704Z,74.50
2019-03-16T17:35:31.462Z,74.50
2019-03-16T17:38:00.941Z,74.70
2019-03-16T17:40:30.543Z,74.00
2019-03-16T17:42:59.330Z,73.40
2019-03-16T17:45:28.096Z,73.30
2019-03-16T17:47:57.157Z,73.40
2019-03-16T17:50:25.937Z,72.90
2019-03-16T17:52:54.803Z,72.00
2019-03-16T17:55:23.683Z,71.30
2019-03-16T17:57:52.784Z,71.10
2019-03-16T18:00:21.547Z,70.90
2019-03-16T18:02:52.386Z,70.40
2019-03-16T18:05:21.495Z,70.10
2019-03-16T18:07:50.353Z,69.90
2019-03-16T18:10:19.584Z,69.50
2019-03-16T18:12:48.375Z,68.70
2019-03-16T18:15:17.330Z,68.50
2019-03-16T18:17:46.375Z,68.50
2019-03-16T18:20:17.349Z,68.40
2019-03-16T18:22:47.087Z,67.50
2019-03-16T18:25:16.047Z,67.10
2019-03-16T18:27:44.915Z,67.10
2019-03-16T18:30:14.804Z,66.80
2019-03-16T18:32:43.682Z,66.30
2019-03-16T18:35:12.885Z,66.60
2019-03-16T18:37:42.033Z,66.70
2019-03-16T18:40:11.603Z,66.30
2019-03-16T18:42:40.439Z,65.90
2019-03-16T18:45:11.640Z,65.80
2019-03-16T18:47:40.949Z,65.90
2019-03-16T18:50:10.331Z,65.80
2019-03-16T18:52:39.828Z,65.80
2019-03-16T18:55:09.667Z,66.10
2019-03-16T18:57:38.842Z,65.90
2019-03-16T19:00:08.760Z,66.60
2019-03-16T19:02:37.892Z,66.40
2019-03-16T19:05:07.586Z,65.80
2019-03-16T19:07:36.463Z,65.50
2019-03-16T19:10:06.347Z,65.80
2019-03-16T19:12:35.104Z,65.60
2019-03-16T19:15:04.062Z,65.90
2019-03-16T19:17:32.886Z,65.50
2019-03-16T19:20:01.943Z,64.80
2019-03-16T19:22:31.000Z,64.80
2019-03-16T19:24:59.766Z,65.00
2019-03-16T19:27:28.532Z,65.10
2019-03-16T19:29:57.876Z,64.80
2019-03-16T19:32:33.742Z,64.00
2019-03-16T19:34:57.159Z,64.30
2019-03-16T19:37:26.205Z,64.30
2019-03-16T19:39:55.234Z,64.30
2019-03-16T19:42:24.290Z,63.60
2019-03-16T19:44:53.473Z,63.70
2019-03-16T19:47:22.575Z,64.20
2019-03-16T19:49:51.672Z,63.80
2019-03-16T19:52:20.779Z,63.30
2019-03-16T19:54:50.640Z,63.10
2019-03-16T19:57:19.442Z,62.90
2019-03-16T19:59:48.238Z,62.90
2019-03-16T20:02:17.346Z,62.90
2019-03-16T20:04:46.111Z,63.20
2019-03-16T20:07:19.427Z,63.50
2019-03-16T20:09:45.380Z,63.10
2019-03-16T20:12:14.586Z,63.60
2019-03-16T20:14:43.760Z,63.60
2019-03-16T20:17:12.529Z,63.60
2019-03-16T20:19:41.299Z,63.50
2019-03-16T20:22:12.205Z,63.50
2019-03-16T20:24:40.876Z,63.80
2019-03-16T20:27:09.660Z,63.80
2019-03-16T20:29:38.510Z,63.60
2019-03-16T20:32:07.358Z,63.40
2019-03-16T20:34:36.810Z,63.20
2019-03-16T20:37:05.595Z,62.80
2019-03-16T20:39:35.000Z,62.90
2019-03-16T20:42:03.851Z,63.40
2019-03-16T20:44:32.930Z,62.90
2019-03-16T20:47:01.709Z,62.70
2019-03-16T20:49:30.782Z,62.50
2019-03-16T20:51:59.804Z,61.80
2019-03-16T20:54:28.589Z,61.90
2019-03-16T20:56:57.363Z,62.00
2019-03-16T20:59:26.754Z,61.50
2019-03-16T21:01:56.024Z,61.80
2019-03-16T21:04:25.452Z,61.50
2019-03-16T21:06:54.649Z,60.90
2019-03-16T21:09:23.566Z,61.20
2019-03-16T21:11:52.330Z,60.70
2019-03-16T21:14:21.109Z,60.80
2019-03-16T21:16:50.182Z,60.90
2019-03-16T21:19:19.248Z,60.60
2019-03-16T21:21:48.039Z,61.00
2019-03-16T21:24:16.859Z,60.80
2019-03-16T21:26:52.549Z,60.20
2019-03-16T21:29:16.532Z,60.00
2019-03-16T21:31:45.385Z,59.90
2019-03-16T21:34:14.175Z,61.10
2019-03-16T21:36:42.953Z,61.30
2019-03-16T21:39:12.378Z,62.60
2019-03-16T21:41:44.306Z,61.30
2019-03-16T21:44:12.112Z,61.60
2019-03-16T21:46:43.681Z,61.80
2019-03-16T21:49:11.716Z,61.50
2019-03-16T21:51:40.533Z,61.80
2019-03-16T21:54:09.919Z,62.00
2019-03-16T21:56:38.766Z,62.40
2019-03-16T21:59:07.904Z,62.40
2019-03-16T22:01:36.681Z,62.40
2019-03-16T22:04:05.781Z,62.50
2019-03-16T22:06:34.876Z,62.90
2019-03-16T22:09:05.177Z,62.90
2019-03-16T22:11:34.592Z,63.00
2019-03-16T22:14:03.383Z,62.50
2019-03-16T22:16:32.627Z,62.50
2019-03-16T22:19:01.427Z,62.90
2019-03-16T22:21:30.217Z,63.00
2019-03-16T22:23:59.253Z,62.60
2019-03-16T22:26:28.051Z,62.70
2019-03-16T22:28:56.815Z,62.50
2019-03-16T22:31:25.600Z,62.20
2019-03-16T22:33:55.079Z,62.70
2019-03-16T22:36:23.903Z,63.00
2019-03-16T22:38:52.960Z,63.00
2019-03-16T22:41:21.751Z,63.20
2019-03-16T22:43:50.644Z,63.20
2019-03-16T22:46:19.768Z,63.40
2019-03-16T22:48:48.551Z,63.30
2019-03-16T22:51:17.321Z,63.30
2019-03-16T22:53:46.473Z,63.10
2019-03-16T22:56:15.260Z,62.70
2019-03-16T22:58:44.323Z,62.40
2019-03-16T23:01:13.530Z,62.50
2019-03-16T23:03:42.622Z,63.10
2019-03-16T23:06:11.659Z,62.90
2019-03-16T23:08:40.443Z,63.40
2019-03-16T23:11:09.238Z,63.00
2019-03-16T23:13:37.992Z,64.00
2019-03-16T23:16:06.808Z,62.50
2019-03-16T23:18:35.898Z,62.40
2019-03-16T23:21:04.801Z,62.50
2019-03-16T23:23:33.588Z,62.40
2019-03-16T23:26:03.024Z,62.40
2019-03-16T23:28:31.876Z,62.40
2019-03-16T23:31:00.676Z,62.30
2019-03-16T23:33:29.719Z,62.80
2019-03-16T23:35:58.487Z,62.30
2019-03-16T23:38:27.590Z,62.70
2019-03-16T23:40:56.659Z,63.20
2019-03-16T23:43:25.727Z,63.10
2019-03-16T23:45:54.510Z,63.10
2019-03-16T23:48:23.287Z,62.90
2019-03-16T23:50:52.631Z,62.60
2019-03-16T23:53:21.768Z,62.50
2019-03-16T23:55:50.854Z,62.80
2019-03-16T23:58:19.634Z,62.90
